Meridian NAS, Mississippi
Current Conditions -  °F | °C
As of 10:56 PM on Saturday 25 Oct 2014 (Local Time) from KNMM Reporting Station
Clear Clear  
Wind Chill: 62°   Ceiling: Unl
Heat Index: 62°   Visibility: 9mi
Dew Point: 59°   Wind: 3mph
Humidity: 90%   Direction: 290°WNW
Pressure: 30.08"   Gusts: NA
Location:  32.55°N, 88.57°W
Report Text: KNMM 260356Z AUTO 29003KT 9SM CLR 17/15 A3008 RMK AO2 SLP196 T01670150 $
Loading
Personal Weather Stations






























Interactive Weather Map
Tropical Storm Tracking
New forecast layout! Learn more

10-Day Weather Forecast

Advertisements
Track Severe Weather on mobile